Time;durP1;ratioP1;P1;durP2;ratioP2;P2;SDS_P1;SDS_P2;PMS_P1;PMS_P2;Temp;Humidity;BMP_temperature;BMP_pressure;BME280_temperature;BME280_humidity;BME280_pressure;Samples;Min_cycle;Max_cycle;Signal;HPM_P1;HPM_P2
2021/01/06 00:01:25;;;;;;;30.05;17.27;;;2.50;99.90;;;;;;6402158;22;20011;-66
2021/01/06 00:03:51;;;;;;;29.83;16.85;;;2.50;99.90;;;;;;6402014;22;19998;-66
2021/01/06 00:06:22;;;;;;;31.20;17.90;;;2.50;99.90;;;;;;6401884;22;20002;-66
2021/01/06 00:08:48;;;;;;;29.57;18.53;;;2.50;99.90;;;;;;6402041;22;20054;-66
2021/01/06 00:11:17;;;;;;;30.67;18.30;;;2.60;99.90;;;;;;6401882;22;19998;-67
2021/01/06 00:13:45;;;;;;;30.30;16.23;;;2.70;99.90;;;;;;6402127;22;20009;-67
2021/01/06 00:16:11;;;;;;;26.70;16.90;;;2.70;99.90;;;;;;6402003;22;20025;-67
2021/01/06 00:18:37;;;;;;;36.67;17.63;;;2.70;99.90;;;;;;6401819;22;20002;-67
2021/01/06 00:21:03;;;;;;;22.10;15.38;;;2.80;99.90;;;;;;6400311;22;20450;-67
2021/01/06 00:23:29;;;;;;;24.20;15.52;;;2.80;99.90;;;;;;6402224;22;20009;-67
2021/01/06 00:25:55;;;;;;;24.52;15.65;;;2.80;99.90;;;;;;6402107;22;20043;-68
2021/01/06 00:28:22;;;;;;;23.75;14.77;;;2.80;99.90;;;;;;6401593;22;20351;-68
2021/01/06 00:30:51;;;;;;;26.13;15.63;;;2.90;99.90;;;;;;6400275;22;20058;-68
2021/01/06 00:33:20;;;;;;;28.23;17.17;;;3.00;99.90;;;;;;6401856;22;20451;-68
2021/01/06 00:35:59;;;;;;;23.73;14.45;;;2.90;99.90;;;;;;6400191;22;19998;-68
2021/01/06 00:38:27;;;;;;;23.10;14.52;;;2.90;99.90;;;;;;6400339;22;20010;-68
2021/01/06 00:40:53;;;;;;;24.40;15.32;;;3.00;99.90;;;;;;6400367;22;19994;-68
2021/01/06 00:43:20;;;;;;;25.48;15.65;;;3.00;99.90;;;;;;6400202;22;20059;-68
2021/01/06 00:45:46;;;;;;;24.17;15.68;;;3.10;99.90;;;;;;6401840;22;19994;-68
2021/01/06 00:48:13;;;;;;;25.75;14.93;;;3.10;99.90;;;;;;6401531;22;20037;-68
2021/01/06 00:50:40;;;;;;;23.02;15.20;;;3.10;99.90;;;;;;6400014;22;20024;-69
2021/01/06 00:53:16;;;;;;;23.58;15.70;;;3.10;99.90;;;;;;6399429;22;20002;-69
2021/01/06 00:55:44;;;;;;;26.38;15.18;;;3.10;99.90;;;;;;6373337;22;20110;-69
2021/01/06 00:58:11;;;;;;;25.92;16.08;;;3.10;99.90;;;;;;6401522;22;20009;-69
2021/01/06 01:00:37;;;;;;;27.30;15.70;;;3.10;99.90;;;;;;6400010;22;20006;-69
2021/01/06 01:03:09;;;;;;;26.13;15.77;;;3.00;99.90;;;;;;6374994;22;20338;-70
2021/01/06 01:05:36;;;;;;;23.73;15.10;;;3.10;99.90;;;;;;6399869;22;20007;-70
2021/01/06 01:08:03;;;;;;;30.77;16.65;;;3.00;99.90;;;;;;6400033;22;20006;-70
2021/01/06 01:10:47;;;;;;;27.40;16.40;;;3.00;99.90;;;;;;6401562;22;20020;-71
2021/01/06 01:13:18;;;;;;;32.13;17.42;;;3.00;99.90;;;;;;6401501;22;20013;-70
2021/01/06 01:15:46;;;;;;;32.78;16.17;;;3.00;99.90;;;;;;6401513;22;20451;-70
2021/01/06 01:18:15;;;;;;;30.23;17.85;;;3.00;99.90;;;;;;6401396;22;20005;-70
2021/01/06 01:20:47;;;;;;;29.45;16.35;;;3.00;99.90;;;;;;6373297;22;20017;-70
2021/01/06 01:23:13;;;;;;;33.35;17.15;;;2.90;99.90;;;;;;6400003;22;20002;-70
2021/01/06 01:25:39;;;;;;;33.20;16.80;;;2.90;99.90;;;;;;6399591;22;20009;-70
2021/01/06 01:28:05;;;;;;;29.60;17.30;;;2.80;99.90;;;;;;6401270;22;20350;-70
2021/01/06 01:30:32;;;;;;;31.98;18.15;;;2.80;99.90;;;;;;6399251;22;20025;-70
2021/01/06 01:32:57;;;;;;;34.58;17.67;;;2.70;99.90;;;;;;6401317;22;20351;-71
2021/01/06 01:35:27;;;;;;;38.88;19.23;;;2.80;99.90;;;;;;6400949;22;19994;-71
2021/01/06 01:37:57;;;;;;;33.53;18.00;;;2.70;99.90;;;;;;6401267;22;20156;-71
2021/01/06 01:40:28;;;;;;;35.13;18.02;;;2.70;99.90;;;;;;6372955;22;20088;-71
2021/01/06 01:43:04;;;;;;;35.10;19.65;;;2.70;99.90;;;;;;6372958;22;20001;-71
2021/01/06 01:45:59;;;;;;;35.95;19.08;;;2.70;99.90;;;;;;6399738;22;20009;-71
2021/01/06 01:48:30;;;;;;;35.80;18.90;;;2.70;99.90;;;;;;6399384;22;20071;-72
2021/01/06 01:51:02;;;;;;;33.00;17.80;;;2.80;99.90;;;;;;6372949;22;20006;-71
2021/01/06 01:53:39;;;;;;;36.28;19.20;;;2.80;99.90;;;;;;6372729;22;20459;-71
2021/01/06 01:56:07;;;;;;;38.22;18.92;;;2.70;99.90;;;;;;6373224;22;20037;-72
2021/01/06 01:58:35;;;;;;;34.05;17.95;;;2.70;99.90;;;;;;6399680;22;20431;-72
2021/01/06 02:01:02;;;;;;;36.38;19.73;;;2.70;99.90;;;;;;6399364;22;20014;-72
2021/01/06 02:03:48;;;;;;;39.35;19.73;;;2.70;99.90;;;;;;6400427;22;20010;-72
2021/01/06 02:06:16;;;;;;;38.55;20.10;;;2.70;99.90;;;;;;6403206;22;20009;-72
2021/01/06 02:08:53;;;;;;;40.45;20.23;;;2.70;99.90;;;;;;6375157;22;20009;-73
2021/01/06 02:11:35;;;;;;;35.70;18.23;;;2.70;99.90;;;;;;6403313;22;19998;-73
2021/01/06 02:14:16;;;;;;;38.60;21.05;;;2.60;99.90;;;;;;6401651;22;20029;-73
2021/01/06 02:17:09;;;;;;;40.28;19.42;;;2.70;99.90;;;;;;6403230;22;20343;-73
2021/01/06 02:19:38;;;;;;;42.58;20.48;;;2.60;99.90;;;;;;6374729;22;20008;-73
2021/01/06 02:22:06;;;;;;;37.22;19.35;;;2.60;99.90;;;;;;6403135;22;20428;-73
2021/01/06 02:24:33;;;;;;;38.72;21.02;;;2.70;99.90;;;;;;6401493;22;20011;-73
2021/01/06 02:26:59;;;;;;;41.67;19.88;;;2.60;99.90;;;;;;6401468;22;20043;-73
2021/01/06 02:29:25;;;;;;;40.65;20.30;;;2.70;99.90;;;;;;6375100;22;20049;-74
2021/01/06 02:31:52;;;;;;;47.20;20.92;;;2.60;99.90;;;;;;6401320;22;20074;-73
2021/01/06 02:34:18;;;;;;;35.17;19.75;;;2.70;99.90;;;;;;6403067;22;20009;-74
2021/01/06 02:36:44;;;;;;;40.88;20.48;;;2.70;99.90;;;;;;6374858;22;20335;-74
2021/01/06 02:39:10;;;;;;;42.92;21.35;;;2.70;99.90;;;;;;6402978;22;20002;-74
2021/01/06 02:41:39;;;;;;;45.97;21.52;;;2.60;99.90;;;;;;6403033;22;20001;-74
2021/01/06 02:44:07;;;;;;;43.90;21.90;;;2.60;99.90;;;;;;6374943;22;20017;-74
2021/01/06 02:46:33;;;;;;;41.83;20.30;;;2.60;99.90;;;;;;6401318;22;20097;-74
2021/01/06 02:49:00;;;;;;;40.10;21.42;;;2.70;99.90;;;;;;6401255;22;20080;-74
2021/01/06 02:51:41;;;;;;;42.67;22.05;;;2.70;99.90;;;;;;6402897;22;20020;-75
2021/01/06 02:54:11;;;;;;;41.35;21.83;;;2.70;99.90;;;;;;6402657;22;20025;-74
2021/01/06 02:56:39;;;;;;;41.40;21.58;;;2.70;99.90;;;;;;6401371;22;20006;-75
2021/01/06 02:59:07;;;;;;;44.08;21.42;;;2.70;99.90;;;;;;6401077;22;20066;-75
2021/01/06 03:01:37;;;;;;;44.20;22.80;;;2.70;99.90;;;;;;6401220;22;20344;-75
2021/01/06 03:04:05;;;;;;;48.53;22.77;;;2.70;99.90;;;;;;6401143;22;20002;-75
2021/01/06 03:06:42;;;;;;;42.53;21.85;;;2.80;99.90;;;;;;6402664;22;20050;-75
2021/01/06 03:09:28;;;;;;;43.45;22.60;;;2.70;99.90;;;;;;6402577;22;20495;-75
2021/01/06 03:11:55;;;;;;;46.75;22.85;;;2.70;99.90;;;;;;6401267;22;20092;-76
2021/01/06 03:14:23;;;;;;;44.45;22.08;;;2.70;99.90;;;;;;6402129;22;20028;-75
2021/01/06 03:16:49;;;;;;;54.67;22.92;;;2.70;99.90;;;;;;6402621;22;20002;-75
2021/01/06 03:19:17;;;;;;;45.25;23.05;;;2.70;99.90;;;;;;6399322;22;20017;-76
2021/01/06 03:21:44;;;;;;;47.30;23.77;;;2.70;99.90;;;;;;6401084;22;20012;-76
2021/01/06 03:24:12;;;;;;;54.60;24.88;;;2.70;99.90;;;;;;6402612;22;19998;-75
2021/01/06 03:26:40;;;;;;;52.10;24.48;;;2.70;99.90;;;;;;6402356;22;20005;-75
2021/01/06 03:29:06;;;;;;;50.17;24.40;;;2.70;99.90;;;;;;6400914;22;20017;-75
2021/01/06 03:31:50;;;;;;;45.38;23.25;;;2.70;99.90;;;;;;6400906;22;20058;-75
2021/01/06 03:34:21;;;;;;;50.63;23.23;;;2.70;99.90;;;;;;6374555;22;19998;-75
2021/01/06 03:36:59;;;;;;;52.60;24.25;;;2.60;99.90;;;;;;6400751;22;20055;-75
2021/01/06 03:39:32;;;;;;;50.58;24.70;;;2.60;99.90;;;;;;6402363;22;20010;-75
2021/01/06 03:41:59;;;;;;;54.65;24.50;;;2.70;99.90;;;;;;6400675;22;20009;-75
2021/01/06 03:44:27;;;;;;;46.80;23.73;;;2.70;99.90;;;;;;6400901;22;20001;-74
2021/01/06 03:47:05;;;;;;;51.08;24.30;;;2.70;99.90;;;;;;6402316;22;20382;-74
2021/01/06 03:49:45;;;;;;;52.15;24.55;;;2.70;99.90;;;;;;6400709;22;20006;-74
2021/01/06 03:52:16;;;;;;;51.42;25.25;;;2.60;99.90;;;;;;6400797;22;19998;-74
2021/01/06 03:55:03;;;;;;;56.15;25.95;;;2.70;99.90;;;;;;6402049;22;20045;-74
2021/01/06 03:57:31;;;;;;;49.75;24.25;;;2.70;99.90;;;;;;6402292;22;20009;-74
2021/01/06 03:59:59;;;;;;;55.03;24.52;;;2.70;99.90;;;;;;6400169;22;20462;-74
2021/01/06 04:02:35;;;;;;;56.70;24.80;;;2.70;99.90;;;;;;6401978;22;19998;-74
2021/01/06 04:05:12;;;;;;;51.92;24.90;;;2.70;99.90;;;;;;6402173;22;20041;-74
2021/01/06 04:07:49;;;;;;;49.80;23.98;;;2.80;99.90;;;;;;6402161;22;20018;-74
2021/01/06 04:10:21;;;;;;;45.78;24.90;;;2.80;99.90;;;;;;6400525;22;20059;-74
2021/01/06 04:12:47;;;;;;;54.22;24.40;;;2.70;99.90;;;;;;6402196;22;20020;-73
2021/01/06 04:15:14;;;;;;;45.67;23.20;;;2.70;99.90;;;;;;6373898;22;20002;-73
2021/01/06 04:17:49;;;;;;;50.40;22.48;;;2.70;99.90;;;;;;6401954;22;20439;-73
2021/01/06 04:20:15;;;;;;;46.38;24.02;;;2.70;99.90;;;;;;6373906;22;20059;-73
2021/01/06 04:22:53;;;;;;;52.90;23.13;;;2.60;99.90;;;;;;6373855;22;20006;-73
2021/01/06 04:25:36;;;;;;;47.05;22.77;;;2.70;99.90;;;;;;6402038;22;20430;-73
2021/01/06 04:28:23;;;;;;;50.95;22.83;;;2.70;99.90;;;;;;6401468;22;20014;-73
2021/01/06 04:31:03;;;;;;;51.45;22.45;;;2.70;99.90;;;;;;6400599;22;20062;-73
2021/01/06 04:33:32;;;;;;;45.55;21.60;;;2.70;99.90;;;;;;6401943;22;20040;-73
2021/01/06 04:36:17;;;;;;;48.25;23.60;;;2.70;99.90;;;;;;6373808;22;20339;-73
2021/01/06 04:38:47;;;;;;;47.45;22.95;;;2.80;99.90;;;;;;6401850;22;20009;-72
2021/01/06 04:41:38;;;;;;;48.38;21.77;;;2.70;99.90;;;;;;6401798;22;19994;-73
2021/01/06 04:44:42;;;;;;;45.35;20.83;;;2.70;99.90;;;;;;6401806;22;20005;-73
2021/01/06 04:47:22;;;;;;;45.47;20.92;;;2.70;99.90;;;;;;6399669;22;20021;-72
2021/01/06 04:49:51;;;;;;;49.67;21.92;;;2.70;99.90;;;;;;6401762;22;20001;-72
2021/01/06 04:52:32;;;;;;;43.90;22.20;;;2.70;99.90;;;;;;6401514;22;19998;-72
2021/01/06 04:55:07;;;;;;;48.58;23.70;;;2.60;99.90;;;;;;6401492;22;20014;-72
2021/01/06 04:57:39;;;;;;;47.15;22.23;;;2.60;99.90;;;;;;6401585;22;19998;-71
2021/01/06 05:00:21;;;;;;;38.50;19.90;;;2.50;99.90;;;;;;6401637;22;20010;-72
2021/01/06 05:03:01;;;;;;;43.25;21.23;;;2.50;99.90;;;;;;6399926;22;20035;-72
2021/01/06 05:05:34;;;;;;;41.25;20.70;;;2.50;99.90;;;;;;6373289;22;20340;-72
2021/01/06 05:08:26;;;;;;;42.85;21.40;;;2.40;99.90;;;;;;6399920;22;20017;-72
2021/01/06 05:11:31;;;;;;;44.60;22.20;;;2.40;99.90;;;;;;6384696;22;20010;-71
2021/01/06 05:14:03;;;;;;;44.47;22.20;;;2.50;99.90;;;;;;6401515;22;20242;-71
2021/01/06 05:16:58;;;;;;;46.30;20.60;;;2.40;99.90;;;;;;6401514;22;20084;-71
2021/01/06 05:19:33;;;;;;;43.42;20.02;;;2.40;99.90;;;;;;6395208;22;20045;-72
2021/01/06 05:22:01;;;;;;;44.22;21.65;;;2.40;99.90;;;;;;6401441;22;20002;-71
2021/01/06 05:24:44;;;;;;;39.63;19.77;;;2.30;99.90;;;;;;6401248;22;19998;-71
2021/01/06 05:27:13;;;;;;;39.60;19.42;;;2.30;99.90;;;;;;6401350;22;20006;-71
2021/01/06 05:29:48;;;;;;;38.63;19.25;;;2.20;99.90;;;;;;6401233;22;20085;-71
2021/01/06 05:32:32;;;;;;;37.03;18.75;;;2.20;99.90;;;;;;6401295;22;20347;-71
2021/01/06 05:35:13;;;;;;;33.10;17.95;;;2.20;99.90;;;;;;6401049;22;20469;-71
2021/01/06 05:37:39;;;;;;;33.70;17.52;;;2.20;99.90;;;;;;6401036;22;20077;-71
2021/01/06 05:40:12;;;;;;;38.80;17.67;;;2.20;99.90;;;;;;6401337;22;19998;-71
2021/01/06 05:42:47;;;;;;;;;;;2.20;99.90;;;;;;6401663;22;20001;-71
2021/01/06 05:45:14;;;;;;;31.25;16.45;;;2.20;99.90;;;;;;6399823;22;19913;-70
2021/01/06 05:47:45;;;;;;;32.58;15.48;;;2.10;99.90;;;;;;6399393;22;20059;-70
2021/01/06 05:50:35;;;;;;;30.95;17.08;;;2.10;99.90;;;;;;6401255;22;19997;-71
2021/01/06 05:53:06;;;;;;;31.55;16.55;;;2.10;99.90;;;;;;6386096;22;20006;-71
2021/01/06 05:55:35;;;;;;;35.28;16.38;;;2.10;99.90;;;;;;6400996;22;20074;-70
2021/01/06 05:58:11;;;;;;;34.28;17.13;;;2.10;99.90;;;;;;6401292;22;20010;-70
2021/01/06 06:01:02;;;;;;;33.83;16.85;;;2.10;99.90;;;;;;6401085;22;19998;-70
2021/01/06 06:03:51;;;;;;;33.25;15.68;;;2.10;99.90;;;;;;6401254;22;20085;-70
2021/01/06 06:06:44;;;;;;;28.10;16.13;;;2.10;99.90;;;;;;6373126;22;20001;-70
2021/01/06 06:09:17;;;;;;;38.45;16.08;;;2.10;99.90;;;;;;6401025;22;20009;-70
2021/01/06 06:11:52;;;;;;;;;;;2.10;99.90;;;;;;6399997;22;20014;-70
2021/01/06 06:14:33;;;;;;;32.63;15.27;;;2.10;99.90;;;;;;6372897;22;19970;-70
2021/01/06 06:17:24;;;;;;;30.45;15.73;;;2.10;99.90;;;;;;6401151;22;20012;-70
2021/01/06 06:19:56;;;;;;;34.20;16.73;;;2.10;99.90;;;;;;6336057;22;20017;-70
2021/01/06 06:23:02;;;;;;;34.03;16.95;;;2.00;99.90;;;;;;6400872;22;20032;-69
2021/01/06 06:25:35;;;;;;;29.83;16.10;;;2.10;99.90;;;;;;6378912;22;20010;-70
2021/01/06 06:28:27;;;;;;;33.90;16.17;;;2.20;99.90;;;;;;6401066;22;20010;-69
2021/01/06 06:30:56;;;;;;;32.30;16.48;;;2.20;99.90;;;;;;6399461;22;20029;-69
2021/01/06 06:33:32;;;;;;;27.52;15.15;;;2.30;99.90;;;;;;6399349;22;20016;-69
2021/01/06 06:36:01;;;;;;;28.55;15.65;;;2.30;99.90;;;;;;6401095;22;20010;-69
2021/01/06 06:38:45;;;;;;;30.15;16.48;;;2.30;99.90;;;;;;6401084;22;20049;-69
2021/01/06 06:41:29;;;;;;;32.15;16.33;;;2.30;99.90;;;;;;6400917;22;20010;-69
2021/01/06 06:44:19;;;;;;;33.60;17.95;;;2.20;99.90;;;;;;6401033;22;20467;-69
2021/01/06 06:46:45;;;;;;;34.85;17.73;;;2.20;99.90;;;;;;6400779;22;20470;-69
2021/01/06 06:49:11;;;;;;;37.45;16.15;;;2.30;99.90;;;;;;6400964;22;20006;-69
2021/01/06 06:51:44;;;;;;;33.10;16.70;;;2.40;99.90;;;;;;6400921;22;20050;-69
2021/01/06 06:54:48;;;;;;;34.42;17.60;;;2.30;99.90;;;;;;6402770;22;20021;-69
2021/01/06 06:57:23;;;;;;;32.05;16.45;;;2.30;99.90;;;;;;6402809;22;20006;-69
2021/01/06 07:00:17;;;;;;;33.85;16.70;;;2.30;99.90;;;;;;6402773;22;19998;-68
2021/01/06 07:02:54;;;;;;;32.67;17.55;;;2.30;99.90;;;;;;6402900;22;20006;-69
2021/01/06 07:05:46;;;;;;;33.25;16.38;;;2.30;99.90;;;;;;6402794;22;20005;-69
2021/01/06 07:08:28;;;;;;;31.37;17.03;;;2.30;99.90;;;;;;6402802;22;20077;-68
2021/01/06 07:11:17;;;;;;;;;;;2.30;99.90;;;;;;6402918;22;20231;-68
2021/01/06 07:13:46;;;;;;;39.40;18.30;;;2.40;99.90;;;;;;6402754;22;19906;-68
2021/01/06 07:16:23;;;;;;;35.42;18.05;;;2.40;99.90;;;;;;6402456;22;20002;-68
2021/01/06 07:18:52;;;;;;;33.67;18.02;;;2.40;99.90;;;;;;6401153;22;20002;-68
2021/01/06 07:21:22;;;;;;;37.30;17.95;;;2.50;99.90;;;;;;6402698;22;20508;-68
2021/01/06 07:23:51;;;;;;;38.47;18.25;;;2.60;99.90;;;;;;6402482;22;20002;-68
2021/01/06 07:26:22;;;;;;;32.92;16.33;;;2.60;99.90;;;;;;6402599;22;19998;-68
2021/01/06 07:28:56;;;;;;;;;;;2.60;99.90;;;;;;6403042;22;20018;-68
2021/01/06 07:31:25;;;;;;;42.28;16.25;;;2.70;99.90;;;;;;6401191;22;19992;-68
2021/01/06 07:34:04;;;;;;;36.40;18.20;;;2.70;99.90;;;;;;6402568;22;20006;-67
2021/01/06 07:36:47;;;;;;;33.13;16.00;;;2.70;99.90;;;;;;6402399;22;20005;-64
2021/01/06 07:39:26;;;;;;;33.72;16.38;;;2.80;99.90;;;;;;6402514;22;19997;-63
2021/01/06 07:41:52;;;;;;;30.85;16.65;;;2.80;99.90;;;;;;6402266;22;20061;-63
2021/01/06 07:44:24;;;;;;;39.80;15.50;;;2.90;99.90;;;;;;6400401;22;20100;-62
2021/01/06 07:47:02;;;;;;;27.10;13.05;;;2.80;99.90;;;;;;6400763;22;20002;-62
2021/01/06 07:49:39;;;;;;;30.67;15.77;;;3.00;99.90;;;;;;6400962;22;20006;-62
2021/01/06 07:52:45;;;;;;;32.80;16.60;;;2.90;99.90;;;;;;6400802;22;20037;-61
2021/01/06 07:55:45;;;;;;;35.50;16.25;;;2.90;99.90;;;;;;6400772;22;20527;-61
2021/01/06 07:58:17;;;;;;;31.80;15.07;;;3.10;99.90;;;;;;6377444;22;20010;-62
2021/01/06 08:01:03;;;;;;;;;;;3.20;99.90;;;;;;6400941;22;20006;-62
2021/01/06 08:03:48;;;;;;;30.30;15.18;;;3.30;99.90;;;;;;6336510;22;20361;-61
2021/01/06 08:06:14;;;;;;;32.03;16.70;;;3.40;99.90;;;;;;6400816;22;20020;-61
2021/01/06 08:08:47;;;;;;;31.55;16.30;;;3.40;99.90;;;;;;6400514;22;20404;-61
2021/01/06 08:11:14;;;;;;;;;;;3.40;99.90;;;;;;6399545;22;19998;-61
2021/01/06 08:13:59;;;;;;;29.85;15.45;;;3.50;99.90;;;;;;6400825;22;19898;-61
2021/01/06 08:16:47;;;;;;;33.60;16.45;;;3.50;99.90;;;;;;6400511;22;20338;-60
2021/01/06 08:19:21;;;;;;;33.13;16.63;;;3.50;99.90;;;;;;6400338;22;20005;-61
2021/01/06 08:22:05;;;;;;;28.73;15.15;;;3.50;99.90;;;;;;6399160;22;20005;-61
2021/01/06 08:24:41;;;;;;;31.95;15.23;;;3.50;99.90;;;;;;6400584;22;20012;-62
2021/01/06 08:27:14;;;;;;;30.83;16.65;;;3.50;99.90;;;;;;6400722;22;20089;-61
2021/01/06 08:29:40;;;;;;;28.48;16.55;;;3.50;99.90;;;;;;6400252;22;20431;-64
2021/01/06 08:32:22;;;;;;;31.80;16.30;;;3.40;99.90;;;;;;6399612;22;20004;-69
2021/01/06 08:35:02;;;;;;;29.70;15.40;;;3.40;99.90;;;;;;6400180;22;20012;-64
2021/01/06 08:37:34;;;;;;;26.70;15.18;;;3.40;99.90;;;;;;6398722;22;20366;-63
2021/01/06 08:40:04;;;;;;;35.10;15.95;;;3.40;99.90;;;;;;6400157;22;20126;-62
2021/01/06 08:42:45;;;;;;;31.92;16.38;;;3.40;99.90;;;;;;6400195;22;19998;-62
2021/01/06 08:45:27;;;;;;;29.15;15.45;;;3.50;99.90;;;;;;6400177;22;20443;-62
2021/01/06 08:47:53;;;;;;;33.83;17.13;;;3.50;99.90;;;;;;6398866;22;20071;-64
2021/01/06 08:50:40;;;;;;;39.60;16.95;;;3.50;99.90;;;;;;6396060;22;19998;-63
2021/01/06 08:53:06;;;;;;;30.40;15.50;;;3.50;99.90;;;;;;6397741;22;20017;-64
2021/01/06 08:55:39;;;;;;;29.83;16.98;;;3.60;99.90;;;;;;6397654;22;20062;-63
2021/01/06 08:58:13;;;;;;;34.08;16.27;;;3.60;99.90;;;;;;6397718;22;20478;-63
2021/01/06 09:00:50;;;;;;;30.67;16.35;;;3.50;99.90;;;;;;6397762;22;20081;-59
2021/01/06 09:03:43;;;;;;;29.65;15.35;;;3.40;99.90;;;;;;6397589;22;20006;-66
2021/01/06 09:06:11;;;;;;;34.58;17.00;;;3.50;99.90;;;;;;6397410;22;20018;-59
2021/01/06 09:08:37;;;;;;;32.13;16.67;;;3.40;99.90;;;;;;6397511;22;20017;-60
2021/01/06 09:11:25;;;;;;;32.45;17.20;;;3.40;99.90;;;;;;6397586;22;20001;-60
2021/01/06 09:14:14;;;;;;;30.38;14.25;;;3.50;99.90;;;;;;6397390;22;20010;-59
2021/01/06 09:16:47;;;;;;;28.55;15.20;;;3.40;99.90;;;;;;6397582;22;20002;-59
2021/01/06 09:19:17;;;;;;;31.02;15.63;;;3.50;99.90;;;;;;6397461;22;20081;-58
2021/01/06 09:21:44;;;;;;;32.15;15.27;;;3.50;99.90;;;;;;6397293;22;20089;-59
2021/01/06 09:24:12;;;;;;;31.98;15.57;;;3.50;99.90;;;;;;6397468;22;20313;-60
2021/01/06 09:26:40;;;;;;;29.00;15.45;;;3.50;99.90;;;;;;6397203;22;20000;-59
2021/01/06 09:29:16;;;;;;;29.25;15.15;;;3.50;99.90;;;;;;6397233;22;20045;-59
2021/01/06 09:31:58;;;;;;;28.35;14.98;;;3.70;99.90;;;;;;6397398;22;20001;-59
2021/01/06 09:34:30;;;;;;;27.63;13.80;;;3.80;99.90;;;;;;6397756;22;20347;-59
2021/01/06 09:36:57;;;;;;;29.40;15.18;;;4.00;99.90;;;;;;6397395;22;20018;-60
2021/01/06 09:39:30;;;;;;;28.23;14.43;;;4.00;99.90;;;;;;6397542;22;20362;-58
2021/01/06 09:41:59;;;;;;;26.20;14.13;;;4.30;99.90;;;;;;6397248;22;20010;-58
2021/01/06 09:44:25;;;;;;;24.05;13.50;;;4.40;99.90;;;;;;6397451;22;19998;-58
2021/01/06 09:46:59;;;;;;;28.48;14.40;;;4.60;99.90;;;;;;6397383;22;20010;-58
2021/01/06 09:49:48;;;;;;;31.60;15.18;;;4.60;99.90;;;;;;6395574;22;20089;-59
2021/01/06 09:52:23;;;;;;;25.90;13.82;;;4.70;99.90;;;;;;6397203;22;20009;-58
2021/01/06 09:54:52;;;;;;;24.23;14.10;;;4.90;99.90;;;;;;6395803;22;20047;-59
2021/01/06 09:57:20;;;;;;;30.02;14.00;;;5.00;99.90;;;;;;6397303;22;20491;-58
2021/01/06 09:59:51;;;;;;;26.77;14.60;;;5.20;99.90;;;;;;6397245;22;20067;-59
2021/01/06 10:02:27;;;;;;;23.60;13.48;;;5.10;99.90;;;;;;6397034;22;20038;-58
2021/01/06 10:05:25;;;;;;;24.80;13.80;;;5.10;99.90;;;;;;6397248;22;20093;-58
2021/01/06 10:08:02;;;;;;;26.17;14.23;;;5.30;99.90;;;;;;6397133;22;20123;-57
2021/01/06 10:10:33;;;;;;;26.13;13.95;;;5.30;99.90;;;;;;6396974;22;20026;-58
2021/01/06 10:13:10;;;;;;;26.67;14.93;;;5.60;99.90;;;;;;6397474;22;20076;-57
2021/01/06 10:16:03;;;;;;;26.88;14.85;;;5.70;99.90;;;;;;6396983;22;20056;-60
2021/01/06 10:18:48;;;;;;;23.40;13.38;;;6.00;99.90;;;;;;6398547;22;20009;-59
2021/01/06 10:21:18;;;;;;;26.60;15.10;;;6.10;99.90;;;;;;6399594;22;20087;-59
2021/01/06 10:24:23;;;;;;;25.98;14.52;;;6.10;99.90;;;;;;6399490;22;20444;-63
2021/01/06 10:26:55;;;;;;;32.85;16.10;;;6.10;99.90;;;;;;6399979;22;20096;-62
2021/01/06 10:29:43;;;;;;;28.08;16.92;;;6.60;99.90;;;;;;6401545;22;20009;-62
2021/01/06 10:32:12;;;;;;;27.85;16.15;;;7.00;99.90;;;;;;6401534;22;20085;-70
2021/01/06 10:34:39;;;;;;;28.25;16.25;;;7.60;99.90;;;;;;6401625;22;20451;-63
2021/01/06 10:37:07;;;;;;;28.45;17.00;;;8.60;99.90;;;;;;6399444;22;20010;-62
2021/01/06 10:39:43;;;;;;;28.15;16.65;;;9.20;99.90;;;;;;6401433;22;20002;-63
2021/01/06 10:42:21;;;;;;;30.05;15.73;;;9.60;99.90;;;;;;6401027;22;20040;-63
2021/01/06 16:20:39;;;;;;;56.25;25.17;;;3.10;99.90;;;;;;6394058;22;20683;-58
2021/01/06 16:23:21;;;;;;;52.28;24.23;;;3.00;99.90;;;;;;6368848;22;20046;-58
2021/01/06 16:25:47;;;;;;;49.33;23.75;;;3.00;99.90;;;;;;6368517;22;20002;-58
2021/01/06 16:28:28;;;;;;;47.58;24.80;;;3.00;99.90;;;;;;6368426;22;20006;-58
2021/01/06 16:31:06;;;;;;;56.53;25.90;;;3.00;99.90;;;;;;6368414;22;20022;-57
2021/01/06 16:33:42;;;;;;;54.33;25.00;;;3.00;99.90;;;;;;6368652;22;20010;-57
2021/01/06 16:36:20;;;;;;;54.42;27.17;;;3.10;99.90;;;;;;6368428;22;20029;-56
2021/01/06 16:38:46;;;;;;;61.03;27.33;;;3.10;99.90;;;;;;6368423;22;20006;-57
2021/01/06 16:41:36;;;;;;;64.28;26.98;;;3.10;99.90;;;;;;6368139;22;20006;-57
2021/01/06 16:44:04;;;;;;;59.42;25.83;;;3.10;99.90;;;;;;6365112;22;20037;-57
2021/01/06 16:46:33;;;;;;;51.42;24.05;;;3.10;99.90;;;;;;6364448;22;20123;-57
2021/01/06 16:49:11;;;;;;;41.08;20.10;;;3.10;99.90;;;;;;6365379;22;20014;-57
2021/01/06 16:51:42;;;;;;;42.08;20.77;;;3.10;99.90;;;;;;6364957;22;20009;-55
2021/01/06 16:54:26;;;;;;;36.85;18.33;;;3.20;99.90;;;;;;6365601;22;20002;-56
2021/01/06 16:56:55;;;;;;;44.50;19.30;;;3.20;99.90;;;;;;6340680;22;20431;-57
2021/01/06 16:59:22;;;;;;;43.63;20.25;;;3.20;99.90;;;;;;6365152;22;20471;-57
2021/01/06 17:02:08;;;;;;;52.08;22.13;;;3.20;99.90;;;;;;6365751;22;20012;-57
2021/01/06 17:04:36;;;;;;;52.17;23.17;;;3.20;99.90;;;;;;6343873;22;20017;-57
2021/01/06 17:07:04;;;;;;;54.00;22.73;;;3.20;99.90;;;;;;6363430;22;20002;-57
2021/01/06 17:09:33;;;;;;;57.75;25.27;;;3.20;99.90;;;;;;6365579;22;20010;-57
2021/01/06 17:12:00;;;;;;;49.95;24.33;;;3.10;99.90;;;;;;6365822;22;19998;-56
2021/01/06 17:14:28;;;;;;;50.60;23.92;;;3.20;99.90;;;;;;6365285;22;20606;-57
2021/01/06 17:17:03;;;;;;;58.08;25.38;;;3.10;99.90;;;;;;6365520;22;20002;-58
2021/01/06 17:19:35;;;;;;;51.45;25.88;;;3.10;99.90;;;;;;6365717;22;20041;-57
2021/01/06 17:22:01;;;;;;;61.83;28.15;;;3.10;99.90;;;;;;6365247;22;20478;-56
2021/01/06 17:24:34;;;;;;;52.92;25.90;;;3.00;99.90;;;;;;6365503;22;20097;-56
2021/01/06 17:27:12;;;;;;;61.25;27.85;;;3.00;99.90;;;;;;6366248;22;20002;-57
2021/01/06 17:29:38;;;;;;;62.53;28.02;;;2.90;99.90;;;;;;6367883;22;20385;-57
2021/01/06 17:32:22;;;;;;;58.10;28.88;;;2.90;99.90;;;;;;6367935;22;20028;-57
2021/01/06 17:34:48;;;;;;;57.42;26.80;;;2.90;99.90;;;;;;6367699;22;20006;-57
2021/01/06 17:37:42;;;;;;;58.83;27.92;;;2.90;99.90;;;;;;6367672;22;20073;-57
2021/01/06 17:40:09;;;;;;;59.20;26.27;;;2.90;99.90;;;;;;6367677;22;20009;-58
2021/01/06 17:42:35;;;;;;;50.20;26.15;;;2.90;99.90;;;;;;6368141;22;20002;-56
2021/01/06 17:45:06;;;;;;;51.00;25.23;;;2.90;99.90;;;;;;6367852;22;20002;-56
2021/01/06 17:47:33;;;;;;;57.58;28.02;;;2.90;99.90;;;;;;6367823;22;20057;-57
2021/01/06 17:50:00;;;;;;;57.78;27.95;;;2.90;99.90;;;;;;6367763;22;19994;-57
2021/01/06 17:52:26;;;;;;;55.70;27.95;;;2.90;99.90;;;;;;6367654;22;20137;-57
2021/01/06 17:54:53;;;;;;;52.83;26.02;;;2.90;99.90;;;;;;6364033;22;20002;-58
2021/01/06 17:57:19;;;;;;;48.88;24.40;;;2.90;99.90;;;;;;6365459;22;20006;-57
2021/01/06 17:59:45;;;;;;;58.78;27.10;;;2.90;99.90;;;;;;6337274;22;20029;-58
2021/01/06 18:02:11;;;;;;;54.13;26.98;;;2.90;99.90;;;;;;6365465;22;20081;-58
2021/01/06 18:04:36;;;;;;;55.70;26.73;;;2.90;99.90;;;;;;6365278;22;20114;-57
2021/01/06 18:07:04;;;;;;;56.95;28.35;;;2.90;99.90;;;;;;6365306;22;20433;-58
2021/01/06 18:09:30;;;;;;;56.80;27.38;;;2.90;99.90;;;;;;6365128;22;20002;-58
2021/01/06 18:11:56;;;;;;;50.95;25.25;;;2.80;99.90;;;;;;6365446;22;20336;-58
2021/01/06 18:14:30;;;;;;;45.13;22.75;;;2.90;99.90;;;;;;6365485;22;20003;-58
2021/01/06 18:17:00;;;;;;;49.97;24.33;;;2.90;99.90;;;;;;6365391;22;20511;-57
2021/01/06 18:19:26;;;;;;;52.08;26.02;;;3.00;99.90;;;;;;6365271;22;20359;-57
2021/01/06 18:22:02;;;;;;;62.58;28.52;;;3.00;99.90;;;;;;6364895;22;20044;-58
2021/01/06 18:24:36;;;;;;;63.58;29.67;;;3.00;99.90;;;;;;6365158;22;20007;-58
2021/01/06 18:27:06;;;;;;;53.28;27.92;;;3.00;99.90;;;;;;6364991;22;20034;-58
2021/01/06 18:29:56;;;;;;;62.92;28.27;;;3.00;99.90;;;;;;6365317;22;20045;-57
2021/01/06 18:32:29;;;;;;;54.28;26.90;;;3.10;99.90;;;;;;6362754;22;20010;-57
2021/01/06 18:35:15;;;;;;;47.78;22.52;;;3.00;99.90;;;;;;6365230;22;20026;-56
2021/01/06 18:37:55;;;;;;;47.05;22.48;;;3.00;99.90;;;;;;6365426;22;20003;-57
2021/01/06 18:40:21;;;;;;;40.90;21.02;;;3.00;99.90;;;;;;6365308;22;20055;-58
2021/01/06 18:42:47;;;;;;;39.58;19.80;;;3.00;99.90;;;;;;6365124;22;20343;-57
2021/01/06 18:45:17;;;;;;;61.17;24.25;;;3.00;99.90;;;;;;6365104;22;20010;-58
2021/01/06 18:47:54;;;;;;;58.83;25.77;;;3.00;99.90;;;;;;6366876;22;20014;-57
2021/01/06 18:50:31;;;;;;;52.67;26.92;;;3.00;99.90;;;;;;6367095;22;20017;-57